createdAt,value
2022-11-02T00:00:36.351Z,44.40
2022-11-02T00:03:24.611Z,40.70
2022-11-02T00:05:52.813Z,36.80
2022-11-02T00:08:21.103Z,41.10
2022-11-02T00:10:49.229Z,40.10
2022-11-02T00:13:21.117Z,35.10
2022-11-02T00:15:49.494Z,33.10
2022-11-02T00:18:18.499Z,35.00
2022-11-02T00:20:46.842Z,34.10
2022-11-02T00:23:16.265Z,33.20
2022-11-02T00:25:47.957Z,35.60
2022-11-02T00:28:16.893Z,37.70
2022-11-02T00:30:45.202Z,37.60
2022-11-02T00:33:13.765Z,41.80
2022-11-02T00:35:42.561Z,36.60
2022-11-02T00:38:10.761Z,34.70
2022-11-02T00:40:39.005Z,33.30
2022-11-02T00:43:07.531Z,34.00
2022-11-02T00:45:35.933Z,33.70
2022-11-02T00:48:05.392Z,35.40
2022-11-02T00:50:34.100Z,35.60
2022-11-02T00:53:02.507Z,31.10
2022-11-02T00:55:31.064Z,29.40
2022-11-02T00:58:04.109Z,31.90
2022-11-02T01:00:32.635Z,34.30
2022-11-02T01:03:02.174Z,37.80
2022-11-02T01:05:30.939Z,36.40
2022-11-02T01:07:59.203Z,35.10
2022-11-02T01:10:28.252Z,42.90
2022-11-02T01:12:56.436Z,33.80
2022-11-02T01:15:24.637Z,34.80
2022-11-02T01:17:54.437Z,30.70
2022-11-02T01:20:22.727Z,28.50
2022-11-02T01:22:50.917Z,31.50
2022-11-02T01:25:20.653Z,31.30
2022-11-02T01:27:48.949Z,29.60
2022-11-02T01:30:17.164Z,34.60
2022-11-02T01:32:45.376Z,35.80
2022-11-02T01:35:13.879Z,35.20
2022-11-02T01:37:42.024Z,32.90
2022-11-02T01:40:10.830Z,39.30
2022-11-02T01:42:39.153Z,32.00
2022-11-02T01:45:07.925Z,36.60
2022-11-02T01:47:39.350Z,34.50
2022-11-02T01:50:21.124Z,30.70
2022-11-02T01:52:49.667Z,29.60
2022-11-02T01:55:23.023Z,34.40
2022-11-02T01:57:58.237Z,32.40
2022-11-02T02:00:26.932Z,37.30
2022-11-02T02:03:06.687Z,37.50
2022-11-02T02:05:41.000Z,41.90
2022-11-02T02:08:10.784Z,40.60
2022-11-02T02:10:39.406Z,32.40
2022-11-02T02:13:07.900Z,42.90
2022-11-02T02:16:14.132Z,43.80
2022-11-02T02:18:55.632Z,41.00
2022-11-02T02:21:42.441Z,45.30
2022-11-02T02:24:38.927Z,39.20
2022-11-02T02:27:16.835Z,44.70
2022-11-02T02:30:14.568Z,41.70
2022-11-02T02:32:58.015Z,44.20
2022-11-02T02:35:33.725Z,43.40
2022-11-02T02:38:08.861Z,36.80
2022-11-02T02:43:14.039Z,36.60
2022-11-02T02:45:42.308Z,37.40
2022-11-02T02:48:15.238Z,38.50
2022-11-02T02:51:04.439Z,37.20
2022-11-02T02:53:38.704Z,36.50
2022-11-02T02:56:07.970Z,37.40
2022-11-02T02:58:49.688Z,36.00
2022-11-02T03:01:19.912Z,35.20
2022-11-02T03:03:48.431Z,39.70
2022-11-02T03:06:23.487Z,31.80
2022-11-02T03:09:31.274Z,34.40
2022-11-02T03:12:04.644Z,32.50
2022-11-02T03:14:35.813Z,33.70
2022-11-02T03:17:29.168Z,33.80
2022-11-02T03:20:15.801Z,33.20
2022-11-02T03:22:55.961Z,29.20
2022-11-02T03:25:33.081Z,31.60
2022-11-02T03:28:47.001Z,34.40
2022-11-02T03:31:27.587Z,30.40
2022-11-02T03:34:15.084Z,30.30
2022-11-02T03:36:46.487Z,27.70
2022-11-02T03:39:20.243Z,28.20
2022-11-02T03:41:51.977Z,28.50
2022-11-02T03:44:25.258Z,31.30
2022-11-02T03:47:02.665Z,30.30
2022-11-02T03:49:32.772Z,30.80
2022-11-02T03:52:08.226Z,28.80
2022-11-02T03:54:52.065Z,31.40
2022-11-02T03:57:27.604Z,30.50
2022-11-02T04:00:14.746Z,31.80
2022-11-02T04:02:49.395Z,34.00
2022-11-02T04:05:21.000Z,31.20
2022-11-02T04:08:10.994Z,26.70
2022-11-02T04:10:59.653Z,28.10
2022-11-02T04:13:47.527Z,28.90
2022-11-02T04:16:16.765Z,33.30
2022-11-02T04:19:03.816Z,26.20
2022-11-02T04:21:32.244Z,25.30
2022-11-02T04:24:19.411Z,25.20
2022-11-02T04:26:47.810Z,26.90
2022-11-02T04:29:16.881Z,34.80
2022-11-02T04:31:45.254Z,28.80
2022-11-02T04:34:14.723Z,30.70
2022-11-02T04:36:42.990Z,28.40
2022-11-02T04:39:11.265Z,27.00
2022-11-02T04:41:42.517Z,28.70
2022-11-02T04:44:39.796Z,29.40
2022-11-02T04:47:14.315Z,30.50
2022-11-02T04:49:42.619Z,31.10
2022-11-02T04:52:12.659Z,30.70
2022-11-02T04:54:44.982Z,32.30
2022-11-02T04:57:13.155Z,32.10
2022-11-02T04:59:41.509Z,29.40
2022-11-02T05:02:09.844Z,36.40
2022-11-02T05:04:39.137Z,31.60
2022-11-02T05:07:08.826Z,37.10
2022-11-02T05:09:37.833Z,29.80
2022-11-02T05:12:06.877Z,32.00
2022-11-02T05:14:35.765Z,31.90
2022-11-02T05:17:04.524Z,34.10
2022-11-02T05:19:33.036Z,31.20
2022-11-02T05:22:01.661Z,31.90
2022-11-02T05:24:30.429Z,28.50
2022-11-02T05:27:00.552Z,30.50
2022-11-02T05:29:28.913Z,31.30
2022-11-02T05:31:57.589Z,32.90
2022-11-02T05:34:26.725Z,40.00
2022-11-02T05:36:55.238Z,31.40
2022-11-02T05:39:23.533Z,31.20
2022-11-02T05:41:51.915Z,34.90
2022-11-02T05:44:20.524Z,34.30
2022-11-02T05:46:48.743Z,32.40
2022-11-02T05:49:16.961Z,31.60
2022-11-02T05:51:45.272Z,27.60
2022-11-02T05:54:13.420Z,33.30
2022-11-02T05:56:41.781Z,35.70
2022-11-02T05:59:10.342Z,31.50
2022-11-02T06:01:39.349Z,32.30
2022-11-02T06:04:07.712Z,33.80
2022-11-02T06:06:36.060Z,29.40
2022-11-02T06:09:07.132Z,32.90
2022-11-02T06:11:35.855Z,35.00
2022-11-02T06:14:04.254Z,31.50
2022-11-02T06:16:32.708Z,32.50
2022-11-02T06:19:00.966Z,32.50
2022-11-02T06:21:29.256Z,34.30
2022-11-02T06:23:59.200Z,29.10
2022-11-02T06:26:27.492Z,32.30
2022-11-02T06:28:55.919Z,32.80
2022-11-02T06:31:24.121Z,28.30
2022-11-02T06:33:52.381Z,38.20
2022-11-02T06:36:20.576Z,30.00
2022-11-02T06:38:48.799Z,29.70
2022-11-02T06:41:17.366Z,29.30
2022-11-02T06:43:45.570Z,30.60
2022-11-02T06:46:13.782Z,32.90
2022-11-02T06:48:42.150Z,33.00
2022-11-02T06:51:10.378Z,33.50
2022-11-02T06:53:38.774Z,29.80
2022-11-02T06:56:07.277Z,30.30
2022-11-02T06:58:35.444Z,28.50
2022-11-02T07:01:09.562Z,32.60
2022-11-02T07:03:37.994Z,36.10
2022-11-02T07:06:11.112Z,32.70
2022-11-02T07:08:42.716Z,30.70
2022-11-02T07:11:16.332Z,32.00
2022-11-02T07:13:44.975Z,30.60
2022-11-02T07:16:13.343Z,32.90
2022-11-02T07:18:41.847Z,30.20
2022-11-02T07:21:12.078Z,31.60
2022-11-02T07:23:40.370Z,30.40
2022-11-02T07:26:08.680Z,27.50
2022-11-02T07:28:38.514Z,29.10
2022-11-02T07:31:06.870Z,28.00
2022-11-02T07:33:35.122Z,25.20
2022-11-02T07:36:05.702Z,31.10
2022-11-02T07:38:34.061Z,28.50
2022-11-02T07:41:02.989Z,25.90
2022-11-02T07:43:38.761Z,29.10
2022-11-02T07:46:35.797Z,25.20
2022-11-02T07:49:04.067Z,28.30
2022-11-02T07:51:32.280Z,31.20
2022-11-02T07:54:01.739Z,26.10
2022-11-02T07:56:29.957Z,28.10
2022-11-02T07:58:58.236Z,31.50
2022-11-02T08:01:26.469Z,32.40
2022-11-02T08:03:54.955Z,29.30
2022-11-02T08:06:23.221Z,26.90
2022-11-02T08:08:51.496Z,32.50
2022-11-02T08:11:39.682Z,32.30
2022-11-02T08:14:08.277Z,26.00
2022-11-02T08:16:36.594Z,25.80
2022-11-02T08:19:05.008Z,27.70
2022-11-02T08:21:33.305Z,25.70
2022-11-02T08:24:01.677Z,29.00
2022-11-02T08:26:30.035Z,30.20
2022-11-02T08:28:58.532Z,30.90
2022-11-02T08:31:26.854Z,25.90
2022-11-02T08:33:55.392Z,26.60
2022-11-02T08:36:23.661Z,30.50
2022-11-02T08:38:52.027Z,27.60
2022-11-02T08:41:20.342Z,29.30
2022-11-02T08:43:48.644Z,26.00
2022-11-02T08:46:18.092Z,25.70
2022-11-02T08:48:46.828Z,31.60
2022-11-02T08:51:15.481Z,23.60
2022-11-02T08:53:48.672Z,24.60
2022-11-02T08:56:18.887Z,27.50
2022-11-02T08:58:47.268Z,26.90
2022-11-02T09:01:15.652Z,26.30
2022-11-02T09:03:43.919Z,27.90
2022-11-02T09:06:12.193Z,23.70
2022-11-02T09:08:40.441Z,27.40
2022-11-02T09:11:08.781Z,26.10
2022-11-02T09:13:38.249Z,21.90
2022-11-02T09:16:06.982Z,25.80
2022-11-02T09:18:35.409Z,25.30
2022-11-02T09:21:05.059Z,26.20
2022-11-02T09:23:33.800Z,22.30
2022-11-02T09:26:02.083Z,21.80
2022-11-02T09:28:31.164Z,25.40
2022-11-02T09:30:59.516Z,23.90
2022-11-02T09:33:29.954Z,21.00
2022-11-02T09:36:03.568Z,22.80
2022-11-02T09:38:32.072Z,24.20
2022-11-02T09:41:00.405Z,29.10
2022-11-02T09:43:42.480Z,30.50
2022-11-02T09:46:20.952Z,24.50
2022-11-02T09:48:54.430Z,23.80
2022-11-02T09:51:53.705Z,21.60
2022-11-02T09:54:34.763Z,25.00
2022-11-02T09:57:15.084Z,25.60
2022-11-02T09:59:43.712Z,21.00
2022-11-02T10:02:49.618Z,19.10
2022-11-02T10:05:45.719Z,21.40
2022-11-02T10:08:32.664Z,24.00
2022-11-02T10:11:41.784Z,18.70
2022-11-02T10:14:12.873Z,20.00
2022-11-02T10:17:04.816Z,16.80
2022-11-02T10:19:38.424Z,19.30
2022-11-02T10:22:12.338Z,17.90
2022-11-02T10:24:46.564Z,21.10
2022-11-02T10:27:27.312Z,18.20
2022-11-02T10:30:16.293Z,19.30
2022-11-02T10:32:47.628Z,20.50
2022-11-02T10:35:41.212Z,22.60
2022-11-02T10:38:41.126Z,19.50
2022-11-02T10:41:12.364Z,22.40
2022-11-02T10:44:08.863Z,17.30
2022-11-02T10:46:43.013Z,17.00
2022-11-02T10:49:34.126Z,15.40
2022-11-02T10:52:02.547Z,13.80
2022-11-02T10:54:34.706Z,20.60
2022-11-02T10:57:14.625Z,17.10
2022-11-02T10:59:42.935Z,20.30
2022-11-02T11:02:15.103Z,21.70
2022-11-02T11:04:43.689Z,18.00
2022-11-02T11:07:26.572Z,16.10
2022-11-02T11:09:56.925Z,17.30
2022-11-02T11:12:31.539Z,13.10
2022-11-02T11:20:42.307Z,12.60
2022-11-02T11:23:19.588Z,12.80
2022-11-02T11:26:06.202Z,13.30
2022-11-02T11:28:52.294Z,14.00
2022-11-02T11:31:21.297Z,12.00
2022-11-02T11:33:54.165Z,12.00
2022-11-02T11:39:06.807Z,16.40
2022-11-02T11:41:40.651Z,16.60
2022-11-02T11:44:14.916Z,16.40
2022-11-02T11:46:50.843Z,16.10
2022-11-02T11:50:07.366Z,13.60
2022-11-02T11:52:24.506Z,13.60
2022-11-02T11:54:58.040Z,11.30
2022-11-02T11:57:29.648Z,13.70
2022-11-02T12:00:01.959Z,13.60
2022-11-02T12:05:18.808Z,15.50
2022-11-02T12:07:57.708Z,15.00
2022-11-02T12:10:57.165Z,13.00
2022-11-02T12:14:03.941Z,14.70
2022-11-02T12:17:01.185Z,9.60
2022-11-02T12:19:38.672Z,10.60
2022-11-02T12:22:16.609Z,10.50
2022-11-02T12:25:19.114Z,12.40
2022-11-02T12:28:19.521Z,11.30
2022-11-02T12:31:23.073Z,13.40
2022-11-02T12:34:31.245Z,12.00
2022-11-02T12:37:39.948Z,10.70
2022-11-02T12:40:09.520Z,8.90
2022-11-02T12:42:50.439Z,12.90
2022-11-02T12:45:58.449Z,6.20
2022-11-02T12:48:34.896Z,7.60
2022-11-02T12:51:13.504Z,7.10
2022-11-02T12:53:50.628Z,9.00
2022-11-02T12:56:31.299Z,11.30
2022-11-02T12:59:00.871Z,9.30
2022-11-02T13:01:40.984Z,10.50
2022-11-02T13:04:30.336Z,14.00
2022-11-02T13:07:06.581Z,8.70
2022-11-02T13:12:19.605Z,10.10
2022-11-02T13:14:53.712Z,19.90
2022-11-02T13:17:31.321Z,13.90
2022-11-02T13:20:07.276Z,13.80
2022-11-02T13:22:41.177Z,33.50
2022-11-02T13:25:31.638Z,16.40
2022-11-02T13:28:07.755Z,12.50
2022-11-02T13:30:36.630Z,12.80
2022-11-02T13:33:17.432Z,10.50
2022-11-02T13:35:46.474Z,10.70
2022-11-02T13:38:27.146Z,9.70
2022-11-02T13:41:10.995Z,9.70
2022-11-02T13:43:45.199Z,8.80
2022-11-02T13:46:27.825Z,8.70
2022-11-02T13:49:05.735Z,12.50
2022-11-02T13:51:49.446Z,11.90
2022-11-02T13:54:26.236Z,9.90
2022-11-02T13:56:58.098Z,9.00
2022-11-02T13:59:30.876Z,8.30
2022-11-02T14:02:02.856Z,10.20
2022-11-02T14:04:39.429Z,11.30
2022-11-02T14:07:41.005Z,13.30
2022-11-02T14:10:20.019Z,11.90
2022-11-02T14:12:49.870Z,18.90
2022-11-02T14:15:18.269Z,8.20
2022-11-02T14:18:04.911Z,7.00
2022-11-02T14:20:46.899Z,8.20
2022-11-02T14:23:16.245Z,6.90
2022-11-02T14:25:53.467Z,8.80
2022-11-02T14:28:30.509Z,13.10
2022-11-02T14:31:21.620Z,15.30
2022-11-02T14:34:14.318Z,13.10
2022-11-02T14:37:06.975Z,7.70
2022-11-02T14:40:00.630Z,7.20
2022-11-02T14:42:47.457Z,12.00
2022-11-02T14:45:15.735Z,14.40
2022-11-02T14:47:44.417Z,8.70
2022-11-02T14:50:19.349Z,10.50
2022-11-02T14:53:03.632Z,12.00
2022-11-02T14:55:37.586Z,9.40
2022-11-02T14:58:20.410Z,8.80
2022-11-02T15:00:48.760Z,10.20
2022-11-02T15:03:26.285Z,15.80
2022-11-02T15:06:27.364Z,12.80
2022-11-02T15:09:07.134Z,10.90
2022-11-02T15:11:50.609Z,18.20
2022-11-02T15:14:42.215Z,15.60
2022-11-02T15:17:10.486Z,22.20
2022-11-02T15:19:46.679Z,17.60
2022-11-02T15:22:38.498Z,16.00
2022-11-02T15:25:09.668Z,16.20
2022-11-02T15:27:41.808Z,14.50
2022-11-02T15:30:29.636Z,16.50
2022-11-02T15:33:05.010Z,13.20
2022-11-02T15:35:37.772Z,15.00
2022-11-02T15:38:30.546Z,14.90
2022-11-02T15:41:06.467Z,13.00
2022-11-02T15:44:02.574Z,19.60
2022-11-02T15:46:53.719Z,23.30
2022-11-02T15:50:10.532Z,20.10
2022-11-02T15:53:21.741Z,25.30
2022-11-02T15:55:47.628Z,23.50
2022-11-02T15:58:35.281Z,28.00
2022-11-02T16:01:12.544Z,24.40
2022-11-02T16:03:46.943Z,24.40
2022-11-02T16:06:23.999Z,27.80
2022-11-02T16:08:52.312Z,22.50
2022-11-02T16:11:21.609Z,22.80
2022-11-02T16:14:08.615Z,62.50
2022-11-02T16:16:49.406Z,67.70
2022-11-02T16:19:22.417Z,54.80
2022-11-02T16:21:51.083Z,50.00
2022-11-02T16:24:20.033Z,45.00
2022-11-02T16:26:49.259Z,42.00
2022-11-02T16:29:32.730Z,36.40
2022-11-02T16:32:01.070Z,30.80
2022-11-02T16:34:32.087Z,34.50
2022-11-02T16:37:09.146Z,42.40
2022-11-02T16:39:42.289Z,47.00
2022-11-02T16:42:16.925Z,42.70
2022-11-02T16:44:55.757Z,45.20
2022-11-02T16:47:40.164Z,40.00
2022-11-02T16:50:23.702Z,43.90
2022-11-02T16:52:59.199Z,59.40
2022-11-02T16:55:40.496Z,73.70
2022-11-02T16:58:18.468Z,123.80
2022-11-02T17:01:05.650Z,121.30
2022-11-02T17:03:34.791Z,95.40
2022-11-02T17:06:07.075Z,74.60
2022-11-02T17:08:38.159Z,83.40
2022-11-02T17:11:13.712Z,79.20
2022-11-02T17:13:50.940Z,74.30
2022-11-02T17:16:20.557Z,57.40
2022-11-02T17:18:49.093Z,55.20
2022-11-02T17:21:28.020Z,49.40
2022-11-02T17:24:00.802Z,37.20
2022-11-02T17:26:34.989Z,32.70
2022-11-02T17:29:42.285Z,33.90
2022-11-02T17:32:22.353Z,35.60
2022-11-02T17:34:56.299Z,28.70
2022-11-02T17:37:28.116Z,28.90
2022-11-02T17:40:00.382Z,27.60
2022-11-02T17:42:48.070Z,30.70
2022-11-02T17:45:33.897Z,28.30
2022-11-02T17:48:02.453Z,26.60
2022-11-02T17:50:33.221Z,27.60
2022-11-02T17:53:02.973Z,25.40
2022-11-02T17:55:34.134Z,32.00
2022-11-02T17:58:02.584Z,31.30
2022-11-02T18:00:33.408Z,27.40
2022-11-02T18:03:02.714Z,32.50
2022-11-02T18:05:35.973Z,25.20
2022-11-02T18:08:06.553Z,25.80
2022-11-02T18:10:39.632Z,32.00
2022-11-02T18:13:12.965Z,25.40
2022-11-02T18:15:41.674Z,31.40
2022-11-02T18:18:10.430Z,27.20
2022-11-02T18:20:41.843Z,26.10
2022-11-02T18:23:19.409Z,26.30
2022-11-02T18:25:47.777Z,28.50
2022-11-02T18:28:16.129Z,24.60
2022-11-02T18:30:44.756Z,24.00
2022-11-02T18:33:14.132Z,28.50
2022-11-02T18:35:42.801Z,32.10
2022-11-02T18:38:11.955Z,35.20
2022-11-02T18:40:40.356Z,39.30
2022-11-02T18:43:09.228Z,30.70
2022-11-02T18:45:37.958Z,25.60
2022-11-02T18:48:07.067Z,31.60
2022-11-02T18:50:35.707Z,33.90
2022-11-02T18:53:03.991Z,33.20
2022-11-02T18:55:32.341Z,31.30
2022-11-02T18:58:00.703Z,27.00
2022-11-02T19:00:29.042Z,27.30
2022-11-02T19:02:57.341Z,30.40
2022-11-02T19:05:45.174Z,30.50
2022-11-02T19:08:31.857Z,30.90
2022-11-02T19:11:00.364Z,31.30
2022-11-02T19:13:28.682Z,28.50
2022-11-02T19:15:57.128Z,27.40
2022-11-02T19:18:25.453Z,21.80
2022-11-02T19:20:53.685Z,21.90
2022-11-02T19:23:21.920Z,25.70
2022-11-02T19:25:52.065Z,25.20
2022-11-02T19:28:20.333Z,26.20
2022-11-02T19:30:48.702Z,24.10
2022-11-02T19:33:17.067Z,26.70
2022-11-02T19:35:55.227Z,27.50
2022-11-02T19:38:24.824Z,26.20
2022-11-02T19:41:11.173Z,25.70
2022-11-02T19:43:41.379Z,24.70
2022-11-02T19:46:20.570Z,27.80
2022-11-02T19:48:49.876Z,27.80
2022-11-02T19:51:25.948Z,32.00
2022-11-02T19:53:58.425Z,27.90
2022-11-02T19:56:28.771Z,29.80
2022-11-02T19:58:57.750Z,26.80
2022-11-02T20:01:34.497Z,26.50
2022-11-02T20:04:03.021Z,27.70
2022-11-02T20:06:39.916Z,28.50
2022-11-02T20:09:14.647Z,25.40
2022-11-02T20:11:45.402Z,28.40
2022-11-02T20:14:16.142Z,27.90
2022-11-02T20:16:45.345Z,32.90
2022-11-02T20:19:18.651Z,27.20
2022-11-02T20:21:47.505Z,31.20
2022-11-02T20:24:16.504Z,28.40
2022-11-02T20:26:44.835Z,38.30
2022-11-02T20:29:17.208Z,42.80
2022-11-02T20:31:46.734Z,33.10
2022-11-02T20:34:15.093Z,30.30
2022-11-02T20:36:43.351Z,27.60
2022-11-02T20:39:12.204Z,29.80
2022-11-02T20:41:40.613Z,24.20
2022-11-02T20:44:08.915Z,27.50
2022-11-02T20:46:41.531Z,30.20
2022-11-02T20:49:21.227Z,31.60
2022-11-02T20:51:58.768Z,28.00
2022-11-02T20:54:29.904Z,29.80
2022-11-02T20:56:58.712Z,27.10
2022-11-02T20:59:27.187Z,28.70
2022-11-02T21:01:55.526Z,25.70
2022-11-02T21:04:24.090Z,28.50
2022-11-02T21:06:52.478Z,31.40
2022-11-02T21:09:20.769Z,33.40
2022-11-02T21:12:07.828Z,40.20
2022-11-02T21:14:36.235Z,30.60
2022-11-02T21:17:06.165Z,26.10
2022-11-02T21:19:34.444Z,25.30
2022-11-02T21:22:02.685Z,23.20
2022-11-02T21:24:30.984Z,26.90
2022-11-02T21:26:59.294Z,27.50
2022-11-02T21:29:27.736Z,28.00
2022-11-02T21:31:56.113Z,27.60
2022-11-02T21:34:24.355Z,24.30
2022-11-02T21:36:52.602Z,26.30
2022-11-02T21:39:20.955Z,31.20
2022-11-02T21:41:49.294Z,24.30
2022-11-02T21:44:17.555Z,28.20
2022-11-02T21:46:45.996Z,25.60
2022-11-02T21:49:14.257Z,29.40
2022-11-02T21:51:43.124Z,26.50
2022-11-02T21:54:11.527Z,24.30
2022-11-02T21:56:39.985Z,25.60
2022-11-02T21:59:09.678Z,23.60
2022-11-02T22:01:47.523Z,25.90
2022-11-02T22:04:25.728Z,25.00
2022-11-02T22:06:59.182Z,21.30
2022-11-02T22:09:28.475Z,24.20
2022-11-02T22:12:16.018Z,26.00
2022-11-02T22:14:45.104Z,23.70
2022-11-02T22:17:43.325Z,24.90
2022-11-02T22:20:02.339Z,24.80
2022-11-02T22:22:31.217Z,26.40
2022-11-02T22:24:59.647Z,26.50
2022-11-02T22:27:27.915Z,23.50
2022-11-02T22:29:56.248Z,31.00
2022-11-02T22:32:24.490Z,29.50
2022-11-02T22:34:52.827Z,26.60
2022-11-02T22:37:39.966Z,24.90
2022-11-02T22:40:08.715Z,27.80
2022-11-02T22:42:39.817Z,28.10
2022-11-02T22:45:10.802Z,27.40
2022-11-02T22:47:39.131Z,23.70
2022-11-02T22:50:07.880Z,24.80
2022-11-02T22:52:36.200Z,27.60
2022-11-02T22:55:04.742Z,21.60
2022-11-02T22:57:33.004Z,28.60
2022-11-02T23:00:01.230Z,24.20
2022-11-02T23:02:29.578Z,24.00
2022-11-02T23:04:57.838Z,29.70
2022-11-02T23:07:26.118Z,27.10
2022-11-02T23:09:54.432Z,29.70
2022-11-02T23:12:22.701Z,25.80
2022-11-02T23:14:50.937Z,28.40
2022-11-02T23:17:19.192Z,27.50
2022-11-02T23:19:47.442Z,28.20
2022-11-02T23:22:30.733Z,25.30
2022-11-02T23:25:18.206Z,23.50
2022-11-02T23:28:18.241Z,23.20
2022-11-02T23:31:05.320Z,25.50
2022-11-02T23:33:38.011Z,25.80
2022-11-02T23:36:13.722Z,26.20
2022-11-02T23:39:02.617Z,28.10
2022-11-02T23:41:33.087Z,26.00
2022-11-02T23:44:14.732Z,27.10
2022-11-02T23:46:45.123Z,27.20
2022-11-02T23:49:13.948Z,27.20
2022-11-02T23:52:00.897Z,29.30
2022-11-02T23:54:47.719Z,29.90
2022-11-02T23:57:16.084Z,34.00
2022-11-02T23:59:44.421Z,29.50
